Time;durP1;ratioP1;P1;durP2;ratioP2;P2;SDS_P1;SDS_P2;PMS_P1;PMS_P2;Temp;Humidity;BMP_temperature;BMP_pressure;BME280_temperature;BME280_humidity;BME280_pressure;Samples;Min_cycle;Max_cycle;Signal;HPM_P1;HPM_P2
2023/02/06 00:02:12;;;;;;;9.48;8.15;;;4.00;99.90;;;;;;5090067;28;20378;-69
2023/02/06 00:04:37;;;;;;;9.60;8.70;;;4.20;99.90;;;;;;5090001;28;20979;-69
2023/02/06 00:07:03;;;;;;;9.93;9.03;;;3.90;99.90;;;;;;5074386;28;20395;-69
2023/02/06 00:09:28;;;;;;;9.30;8.40;;;3.90;99.90;;;;;;5089527;28;20763;-69
2023/02/06 00:11:54;;;;;;;9.40;8.50;;;3.80;99.90;;;;;;5090249;28;20451;-69
2023/02/06 00:14:19;;;;;;;9.17;8.30;;;3.90;99.90;;;;;;5090106;28;20397;-69
2023/02/06 00:16:45;;;;;;;9.63;8.63;;;3.80;99.90;;;;;;5089866;28;20404;-69
2023/02/06 00:19:10;;;;;;;8.70;7.10;;;3.90;99.90;;;;;;5089908;28;20379;-69
2023/02/06 00:21:36;;;;;;;7.63;6.93;;;5.10;99.90;;;;;;5089805;28;20378;-69
2023/02/06 00:24:03;;;;;;;8.60;7.70;;;3.80;99.90;;;;;;5090099;28;20365;-69
2023/02/06 00:26:30;;;;;;;7.35;6.60;;;3.90;99.90;;;;;;5089562;28;20747;-69
2023/02/06 00:28:56;;;;;;;7.70;6.90;;;3.90;99.90;;;;;;5089856;28;20412;-69
2023/02/06 00:31:21;;;;;;;7.30;6.60;;;4.30;99.90;;;;;;5090278;28;20378;-69
2023/02/06 00:33:47;;;;;;;7.70;6.88;;;3.90;99.90;;;;;;5090025;28;20382;-69
2023/02/06 00:36:12;;;;;;;7.20;6.50;;;3.90;99.90;;;;;;5089564;28;20386;-69
2023/02/06 00:38:38;;;;;;;7.40;6.70;;;3.90;99.90;;;;;;5090066;28;20473;-69
2023/02/06 00:41:04;;;;;;;7.60;6.90;;;4.10;99.90;;;;;;5089490;28;20485;-69
2023/02/06 00:43:29;;;;;;;7.95;7.20;;;4.00;99.90;;;;;;5089816;28;20864;-68
2023/02/06 00:45:56;;;;;;;7.85;7.05;;;4.10;99.90;;;;;;5089771;28;20906;-69
2023/02/06 00:48:22;;;;;;;8.20;7.40;;;4.00;99.90;;;;;;5089696;28;20388;-69
2023/02/06 00:50:49;;;;;;;7.70;7.00;;;4.00;99.90;;;;;;5089740;28;20438;-69
2023/02/06 00:53:14;;;;;;;8.38;7.57;;;3.90;99.90;;;;;;5089774;28;20390;-69
2023/02/06 00:55:40;;;;;;;8.00;7.20;;;4.10;99.90;;;;;;5089225;28;20474;-69
2023/02/06 00:58:05;;;;;;;8.47;7.10;;;3.90;99.90;;;;;;5089819;28;20385;-69
2023/02/06 01:00:32;;;;;;;10.00;7.90;;;3.80;99.90;;;;;;5090989;28;20402;-69
2023/02/06 01:02:58;;;;;;;8.00;7.20;;;3.80;99.90;;;;;;5093550;28;20378;-69
2023/02/06 01:05:24;;;;;;;8.80;7.13;;;4.10;99.90;;;;;;5091747;28;20381;-69
2023/02/06 01:07:49;;;;;;;7.30;6.60;;;3.90;99.90;;;;;;5072901;28;20399;-69
2023/02/06 01:10:15;;;;;;;8.48;7.40;;;3.90;99.90;;;;;;5073243;28;20513;-69
2023/02/06 01:12:41;;;;;;;9.05;7.72;;;3.90;99.90;;;;;;5073296;28;20406;-69
2023/02/06 01:15:09;;;;;;;7.68;6.90;;;3.90;99.90;;;;;;5090246;28;20397;-69
2023/02/06 01:17:37;;;;;;;7.72;7.03;;;3.90;99.90;;;;;;5092827;28;20397;-70
2023/02/06 01:20:04;;;;;;;7.78;7.07;;;3.90;99.90;;;;;;5093025;28;20410;-69
2023/02/06 01:22:33;;;;;;;7.70;7.00;;;3.90;99.90;;;;;;5093441;28;20879;-68
2023/02/06 01:24:58;;;;;;;8.30;7.50;;;3.70;99.90;;;;;;5093019;28;20784;-69
2023/02/06 01:27:24;;;;;;;8.50;7.70;;;3.80;99.90;;;;;;5092519;28;20429;-70
2023/02/06 01:29:49;;;;;;;9.40;8.60;;;3.80;99.90;;;;;;5092975;28;20389;-67
2023/02/06 01:32:14;;;;;;;8.95;8.05;;;4.10;99.90;;;;;;5093210;28;20422;-70
2023/02/06 01:34:40;;;;;;;6.60;6.00;;;3.90;99.90;;;;;;5092641;28;20873;-69
2023/02/06 01:37:06;;;;;;;7.32;6.60;;;3.80;99.90;;;;;;5092620;28;20465;-67
2023/02/06 01:39:31;;;;;;;7.63;6.60;;;3.90;99.90;;;;;;5092384;28;20406;-69
2023/02/06 01:41:57;;;;;;;6.88;6.22;;;3.90;99.90;;;;;;5093190;28;20462;-70
2023/02/06 01:44:23;;;;;;;6.85;6.22;;;3.90;99.90;;;;;;5092770;28;20381;-68
2023/02/06 01:46:54;;;;;;;6.68;6.07;;;3.80;99.90;;;;;;5092423;28;20740;-68
2023/02/06 01:49:26;;;;;;;7.80;7.10;;;3.80;99.90;;;;;;5092524;28;20453;-68
2023/02/06 01:51:57;;;;;;;8.10;6.65;;;3.80;99.90;;;;;;5092505;28;20875;-67
2023/02/06 01:54:23;;;;;;;7.90;7.20;;;3.80;99.90;;;;;;5092505;28;20386;-68
2023/02/06 01:56:57;;;;;;;8.40;7.60;;;3.80;99.90;;;;;;5092254;28;20465;-68
2023/02/06 01:59:25;;;;;;;7.25;6.60;;;3.90;99.90;;;;;;5092109;28;20374;-68
2023/02/06 02:01:50;;;;;;;8.00;7.23;;;3.90;99.90;;;;;;5092466;28;20394;-67
2023/02/06 02:04:20;;;;;;;6.97;6.17;;;4.10;99.90;;;;;;5092220;28;20499;-68
2023/02/06 02:07:10;;;;;;;7.10;6.40;;;3.80;99.90;;;;;;5091740;28;20429;-68
2023/02/06 02:09:36;;;;;;;7.68;6.97;;;3.90;99.90;;;;;;5091756;28;20478;-67
2023/02/06 02:12:02;;;;;;;7.70;7.00;;;4.10;99.90;;;;;;5091509;28;20433;-67
2023/02/06 02:14:28;;;;;;;6.88;6.18;;;3.60;99.90;;;;;;5091934;28;20401;-67
2023/02/06 02:17:35;;;;;;;8.30;7.40;;;3.50;99.90;;;;;;5091889;28;20472;-68
2023/02/06 02:20:31;;;;;;;8.68;7.88;;;3.50;99.90;;;;;;5091929;28;20895;-68
2023/02/06 02:23:31;;;;;;;8.13;7.33;;;3.40;99.90;;;;;;5091766;28;20428;-67
2023/02/06 02:26:15;;;;;;;8.10;7.30;;;3.40;99.90;;;;;;5091498;28;20381;-68
2023/02/06 02:29:09;;;;;;;7.90;7.18;;;3.40;99.90;;;;;;5091508;28;20747;-68
2023/02/06 02:32:14;;;;;;;8.15;7.35;;;3.20;99.90;;;;;;5090722;28;20378;-68
2023/02/06 02:35:00;;;;;;;9.07;8.13;;;3.20;99.90;;;;;;5091709;28;20393;-69
2023/02/06 02:37:52;;;;;;;9.70;8.70;;;3.00;99.90;;;;;;5091124;28;20398;-69
2023/02/06 02:40:35;;;;;;;9.97;8.97;;;3.00;99.90;;;;;;5091521;28;20425;-69
2023/02/06 02:43:25;;;;;;;9.60;8.00;;;3.10;99.90;;;;;;5091809;28;20374;-68
2023/02/06 02:45:59;;;;;;;9.38;8.38;;;3.00;99.90;;;;;;5091286;28;20374;-69
2023/02/06 02:48:29;;;;;;;9.70;8.80;;;2.90;99.90;;;;;;5091438;28;20374;-68
2023/02/06 02:50:57;;;;;;;10.47;8.53;;;3.00;99.90;;;;;;5090809;28;20416;-68
2023/02/06 02:53:22;;;;;;;11.63;9.20;;;3.00;99.90;;;;;;5091480;28;20959;-68
2023/02/06 02:55:48;;;;;;;10.10;8.50;;;2.80;99.90;;;;;;5090903;28;20412;-68
2023/02/06 02:58:18;;;;;;;10.30;9.30;;;2.90;99.90;;;;;;5091135;28;20401;-68
2023/02/06 03:00:47;;;;;;;9.80;8.90;;;2.80;99.90;;;;;;5091099;28;20398;-69
2023/02/06 03:03:16;;;;;;;9.93;8.93;;;3.00;99.90;;;;;;5090146;28;20390;-68
2023/02/06 03:06:09;;;;;;;9.07;8.18;;;2.80;99.90;;;;;;5090419;28;20386;-68
2023/02/06 03:08:45;;;;;;;9.98;8.98;;;2.90;99.90;;;;;;5100519;22;20423;-69
2023/02/06 03:11:19;;;;;;;9.38;8.45;;;2.80;99.90;;;;;;5051123;28;20934;-69
2023/02/06 03:13:54;;;;;;;8.13;7.43;;;2.70;99.90;;;;;;5050691;28;20397;-69
2023/02/06 03:16:28;;;;;;;8.45;7.63;;;2.70;99.90;;;;;;5050500;28;20373;-70
2023/02/06 03:19:09;;;;;;;8.10;7.30;;;2.70;99.90;;;;;;5063028;28;20384;-69
2023/02/06 03:21:35;;;;;;;7.30;6.60;;;2.60;99.90;;;;;;5080267;28;20930;-69
2023/02/06 03:24:07;;;;;;;8.90;8.00;;;2.30;99.90;;;;;;5089996;28;20397;-69
2023/02/06 03:26:36;;;;;;;9.10;8.10;;;3.00;99.90;;;;;;5090678;28;20891;-69
2023/02/06 03:29:05;;;;;;;9.48;8.50;;;2.30;99.90;;;;;;5090541;28;20422;-69
2023/02/06 03:31:35;;;;;;;8.77;7.97;;;2.50;99.90;;;;;;5072281;28;20397;-69
2023/02/06 03:34:12;;;;;;;8.82;7.70;;;2.40;99.90;;;;;;5090613;28;20390;-69
2023/02/06 03:36:38;;;;;;;7.95;7.15;;;2.30;99.90;;;;;;5089895;28;20404;-70
2023/02/06 03:39:04;;;;;;;7.95;7.15;;;2.10;99.90;;;;;;5090538;28;20382;-69
2023/02/06 03:41:33;;;;;;;8.40;7.60;;;2.00;99.90;;;;;;5090283;28;20409;-69
2023/02/06 03:44:02;;;;;;;8.65;7.07;;;2.10;99.90;;;;;;5090152;28;20459;-69
2023/02/06 03:46:30;;;;;;;7.85;7.05;;;2.10;99.90;;;;;;5071813;28;20794;-69
2023/02/06 03:49:00;;;;;;;7.63;6.47;;;2.00;99.90;;;;;;5090286;28;20378;-69
2023/02/06 03:51:33;;;;;;;7.03;6.32;;;2.20;99.90;;;;;;5090230;28;20384;-68
2023/02/06 03:54:02;;;;;;;6.50;5.90;;;2.00;99.90;;;;;;5090389;28;20742;-69
2023/02/06 03:57:07;;;;;;;6.90;6.20;;;2.50;99.90;;;;;;5089034;28;20517;-68
2023/02/06 03:59:33;;;;;;;7.40;6.10;;;2.00;99.90;;;;;;5085723;28;20455;-68
2023/02/06 04:02:02;;;;;;;7.10;5.97;;;2.00;99.90;;;;;;5090271;28;20382;-68
2023/02/06 04:04:39;;;;;;;6.38;5.78;;;2.00;99.90;;;;;;5090178;28;20384;-69
2023/02/06 04:07:26;;;;;;;6.13;5.53;;;1.90;99.90;;;;;;5089740;28;20386;-68
2023/02/06 04:09:52;;;;;;;6.25;5.63;;;1.80;99.90;;;;;;5090205;28;20426;-69
2023/02/06 04:12:19;;;;;;;6.18;5.30;;;1.80;99.90;;;;;;5089596;28;20386;-69
2023/02/06 04:14:45;;;;;;;5.22;4.72;;;2.00;99.90;;;;;;5090037;28;20389;-68
2023/02/06 04:17:11;;;;;;;5.35;4.85;;;1.80;99.90;;;;;;5089693;28;20374;-69
2023/02/06 04:19:37;;;;;;;6.45;5.18;;;2.00;99.90;;;;;;5071756;28;20397;-68
2023/02/06 04:22:04;;;;;;;5.53;5.03;;;1.40;99.90;;;;;;5090035;28;20388;-69
2023/02/06 04:24:30;;;;;;;4.93;4.43;;;1.70;99.90;;;;;;5090060;28;20394;-68
2023/02/06 04:26:56;;;;;;;5.30;4.80;;;1.80;99.90;;;;;;5089641;28;20386;-68
2023/02/06 04:29:22;;;;;;;5.40;4.90;;;1.70;99.90;;;;;;5089772;28;20439;-68
2023/02/06 04:31:47;;;;;;;5.10;4.60;;;1.60;99.90;;;;;;5090096;28;20417;-68
2023/02/06 04:34:13;;;;;;;5.07;4.40;;;1.40;99.90;;;;;;5090077;28;20390;-69
2023/02/06 04:36:38;;;;;;;5.50;4.70;;;1.50;99.90;;;;;;5093293;28;20429;-69
2023/02/06 04:39:05;;;;;;;4.80;4.40;;;1.60;99.90;;;;;;5094141;28;20424;-69
2023/02/06 04:41:31;;;;;;;5.00;4.43;;;1.60;99.90;;;;;;5094067;28;20400;-69
2023/02/06 04:43:56;;;;;;;4.28;3.90;;;1.60;99.90;;;;;;5094089;28;20373;-68
2023/02/06 04:46:22;;;;;;;5.40;4.25;;;1.60;99.90;;;;;;5093310;28;20383;-68
2023/02/06 04:48:48;;;;;;;5.50;5.00;;;1.70;99.90;;;;;;5093965;28;20374;-68
2023/02/06 04:51:13;;;;;;;5.53;5.03;;;1.80;99.90;;;;;;5093903;28;20887;-69
2023/02/06 04:53:39;;;;;;;5.32;4.72;;;1.70;99.90;;;;;;5093931;28;20468;-67
2023/02/06 04:56:07;;;;;;;4.00;3.70;;;1.90;99.90;;;;;;5093614;28;20388;-67
2023/02/06 04:58:33;;;;;;;4.35;3.95;;;1.80;99.90;;;;;;5093758;28;20465;-67
2023/02/06 05:00:59;;;;;;;4.88;4.38;;;1.70;99.90;;;;;;5093405;28;20778;-67
2023/02/06 05:03:25;;;;;;;5.13;4.63;;;1.80;99.90;;;;;;5093562;28;20879;-67
2023/02/06 05:05:51;;;;;;;5.40;4.90;;;1.80;99.90;;;;;;5093411;28;20414;-68
2023/02/06 05:08:17;;;;;;;5.60;5.10;;;1.80;99.90;;;;;;5092913;28;20397;-67
2023/02/06 05:10:43;;;;;;;6.00;4.93;;;1.80;99.90;;;;;;5075364;28;20405;-67
2023/02/06 05:13:08;;;;;;;5.60;5.10;;;1.80;99.90;;;;;;5093479;28;20424;-67
2023/02/06 05:15:35;;;;;;;5.60;5.10;;;1.80;99.90;;;;;;5093108;28;20393;-67
2023/02/06 05:18:01;;;;;;;6.10;5.50;;;1.80;99.90;;;;;;5093304;28;20381;-68
2023/02/06 05:20:26;;;;;;;5.63;5.00;;;1.80;99.90;;;;;;5093441;28;20394;-67
2023/02/06 05:22:52;;;;;;;6.00;5.40;;;1.80;99.90;;;;;;5092897;28;20401;-67
2023/02/06 05:25:17;;;;;;;6.63;6.03;;;1.80;99.90;;;;;;5093200;28;20394;-66
2023/02/06 05:27:43;;;;;;;6.40;5.80;;;1.90;99.90;;;;;;5093024;28;20390;-68
2023/02/06 05:30:09;;;;;;;6.77;6.17;;;1.90;99.90;;;;;;5093086;28;20374;-67
2023/02/06 05:32:35;;;;;;;6.53;5.93;;;1.90;99.90;;;;;;5093104;28;20410;-68
2023/02/06 05:35:00;;;;;;;5.83;5.33;;;1.90;99.90;;;;;;5091811;28;20421;-67
2023/02/06 05:37:26;;;;;;;6.65;6.05;;;1.90;99.90;;;;;;5084242;28;20378;-66
2023/02/06 05:39:51;;;;;;;6.78;5.60;;;1.90;99.90;;;;;;5092991;28;20433;-67
2023/02/06 05:42:17;;;;;;;6.90;6.20;;;1.70;99.90;;;;;;5092892;28;20886;-68
2023/02/06 05:44:42;;;;;;;7.30;6.47;;;1.70;99.90;;;;;;5092779;28;20374;-68
2023/02/06 05:47:08;;;;;;;6.28;5.68;;;1.80;99.90;;;;;;5073406;28;20390;-67
2023/02/06 05:49:33;;;;;;;6.43;5.82;;;1.80;99.90;;;;;;5092018;28;20389;-68
2023/02/06 05:51:59;;;;;;;6.07;5.47;;;1.70;99.90;;;;;;5089270;28;20740;-68
2023/02/06 05:54:24;;;;;;;6.00;5.40;;;1.70;99.90;;;;;;5090062;28;20437;-67
2023/02/06 05:56:50;;;;;;;7.00;6.30;;;2.00;99.90;;;;;;5076601;28;20926;-66
2023/02/06 05:59:15;;;;;;;7.30;6.60;;;1.60;99.90;;;;;;5072164;28;20414;-66
2023/02/06 06:01:41;;;;;;;7.47;6.50;;;1.50;99.90;;;;;;5072260;28;20403;-67
2023/02/06 06:04:06;;;;;;;7.90;6.65;;;1.60;99.90;;;;;;5087360;28;20390;-67
2023/02/06 06:06:32;;;;;;;7.20;6.50;;;1.60;99.90;;;;;;5086212;28;20386;-67
2023/02/06 06:09:00;;;;;;;7.50;6.80;;;2.20;99.90;;;;;;5083601;28;20442;-67
2023/02/06 06:11:27;;;;;;;7.35;6.65;;;1.80;99.90;;;;;;5067211;28;20388;-67
2023/02/06 06:13:52;;;;;;;7.20;6.50;;;2.20;99.90;;;;;;5088143;28;21080;-68
2023/02/06 06:16:18;;;;;;;7.20;6.57;;;1.70;99.90;;;;;;5092507;28;20394;-68
2023/02/06 06:18:43;;;;;;;7.87;7.07;;;1.70;99.90;;;;;;5092000;28;20447;-68
2023/02/06 06:21:09;;;;;;;7.83;7.10;;;1.70;99.90;;;;;;5092161;28;20518;-67
2023/02/06 06:23:34;;;;;;;7.20;6.50;;;1.80;99.90;;;;;;5092116;28;20805;-68
2023/02/06 06:26:00;;;;;;;7.55;6.85;;;1.90;99.90;;;;;;5091826;28;20374;-68
2023/02/06 06:28:25;;;;;;;7.13;6.43;;;1.90;99.90;;;;;;5091834;28;20751;-67
2023/02/06 06:30:59;;;;;;;7.20;6.50;;;1.80;99.90;;;;;;5092085;28;20920;-67
2023/02/06 06:33:25;;;;;;;7.47;6.78;;;1.80;99.90;;;;;;5085668;28;20459;-65
2023/02/06 06:35:50;;;;;;;7.13;6.43;;;1.90;99.90;;;;;;5091599;28;20382;-67
2023/02/06 06:38:16;;;;;;;6.60;6.00;;;1.80;99.90;;;;;;5091617;28;20382;-68
2023/02/06 06:40:41;;;;;;;7.10;6.43;;;1.90;99.90;;;;;;5091767;28;20422;-67
2023/02/06 06:43:06;;;;;;;6.80;6.10;;;1.80;99.90;;;;;;5091613;28;20499;-68
2023/02/06 06:45:33;;;;;;;6.15;5.55;;;1.80;99.90;;;;;;5091035;28;20381;-68
2023/02/06 06:47:58;;;;;;;6.88;6.18;;;1.80;99.90;;;;;;5073473;28;20390;-67
2023/02/06 06:50:24;;;;;;;7.33;6.70;;;1.80;99.90;;;;;;5091766;28;20851;-67
2023/02/06 06:52:49;;;;;;;7.53;6.83;;;2.00;99.90;;;;;;5091496;28;20378;-67
2023/02/06 06:55:15;;;;;;;7.77;6.93;;;1.80;99.90;;;;;;5091401;28;20377;-68
2023/02/06 06:57:41;;;;;;;7.60;6.90;;;1.90;99.90;;;;;;5090992;28;20736;-67
2023/02/06 07:00:08;;;;;;;7.72;6.53;;;2.30;99.90;;;;;;5072652;28;20471;-68
2023/02/06 07:02:33;;;;;;;7.40;6.70;;;2.00;99.90;;;;;;5091294;28;21034;-67
2023/02/06 07:04:59;;;;;;;7.90;7.10;;;1.90;99.90;;;;;;5091334;28;20402;-67
2023/02/06 07:07:24;;;;;;;8.80;6.63;;;2.10;99.90;;;;;;5090848;28;20389;-66
2023/02/06 07:09:50;;;;;;;7.40;6.70;;;2.10;99.90;;;;;;5091002;28;20386;-67
2023/02/06 07:12:15;;;;;;;6.65;6.03;;;2.10;99.90;;;;;;5090758;28;20390;-68
2023/02/06 07:14:41;;;;;;;7.05;6.15;;;2.10;99.90;;;;;;5091027;28;20378;-67
2023/02/06 07:17:06;;;;;;;7.88;6.10;;;2.10;99.90;;;;;;5091003;28;20386;-67
2023/02/06 07:19:32;;;;;;;6.90;6.20;;;2.20;99.90;;;;;;5090930;28;20431;-66
2023/02/06 07:21:57;;;;;;;8.93;7.90;;;2.00;99.90;;;;;;5091161;28;20434;-68
2023/02/06 07:24:23;;;;;;;7.80;7.00;;;1.80;99.90;;;;;;5090842;28;20374;-68
2023/02/06 07:26:48;;;;;;;9.03;8.10;;;2.10;99.90;;;;;;5090214;28;20386;-67
2023/02/06 07:29:14;;;;;;;9.50;8.20;;;2.10;99.90;;;;;;5090747;28;20370;-67
2023/02/06 07:31:40;;;;;;;10.63;9.00;;;2.30;99.90;;;;;;5090551;28;20416;-68
2023/02/06 07:34:05;;;;;;;11.65;10.18;;;2.20;99.90;;;;;;5090820;28;20405;-68
2023/02/06 07:36:31;;;;;;;10.90;9.80;;;2.30;99.90;;;;;;5090543;28;20397;-68
2023/02/06 07:38:57;;;;;;;11.45;10.15;;;2.20;99.90;;;;;;5090650;28;20386;-67
2023/02/06 07:41:22;;;;;;;11.95;10.73;;;2.30;99.90;;;;;;5090770;28;20512;-67
2023/02/06 07:43:48;;;;;;;13.30;11.20;;;2.50;99.90;;;;;;5090174;28;20464;-68
2023/02/06 07:46:13;;;;;;;12.77;11.48;;;3.20;99.90;;;;;;5090215;28;20914;-68
2023/02/06 07:48:38;;;;;;;12.63;11.33;;;2.60;99.90;;;;;;5090485;28;20420;-67
2023/02/06 07:51:06;;;;;;;12.83;11.40;;;2.60;99.90;;;;;;5072711;28;20526;-68
2023/02/06 07:53:33;;;;;;;13.23;11.00;;;2.50;99.90;;;;;;5090586;28;20883;-68
2023/02/06 07:55:58;;;;;;;12.10;10.90;;;2.60;99.90;;;;;;5089963;28;20960;-68
2023/02/06 07:58:24;;;;;;;12.75;10.60;;;2.60;99.90;;;;;;5090818;28;20390;-68
2023/02/06 08:00:50;;;;;;;10.80;9.70;;;2.40;99.90;;;;;;5090554;28;20448;-68
2023/02/06 08:03:15;;;;;;;10.45;9.30;;;2.70;99.90;;;;;;5090483;28;20947;-67
2023/02/06 08:05:41;;;;;;;9.68;8.68;;;2.60;99.90;;;;;;5089871;28;20390;-67
2023/02/06 08:08:08;;;;;;;11.60;10.40;;;2.90;99.90;;;;;;5089903;28;20442;-68
2023/02/06 08:10:34;;;;;;;10.73;9.63;;;2.80;99.90;;;;;;5073559;28;20393;-67
2023/02/06 08:12:59;;;;;;;10.73;9.43;;;2.50;99.90;;;;;;5094622;28;20431;-67
2023/02/06 08:15:25;;;;;;;11.73;9.90;;;2.60;99.90;;;;;;5094372;28;20374;-67
2023/02/06 08:17:50;;;;;;;11.52;10.32;;;2.50;99.90;;;;;;5094530;28;20389;-68
2023/02/06 08:20:16;;;;;;;10.20;9.20;;;2.80;99.90;;;;;;5094456;28;20981;-68
2023/02/06 08:22:42;;;;;;;11.20;8.90;;;2.60;99.90;;;;;;5093869;28;20386;-67
2023/02/06 08:25:07;;;;;;;7.60;6.90;;;2.70;99.90;;;;;;5094173;28;20748;-67
2023/02/06 08:27:33;;;;;;;8.10;7.30;;;2.60;99.90;;;;;;5093898;28;20385;-67
2023/02/06 08:29:59;;;;;;;7.85;7.05;;;2.40;99.90;;;;;;5094249;28;20397;-68
2023/02/06 08:32:25;;;;;;;9.93;8.20;;;2.50;99.90;;;;;;5094366;28;20733;-67
2023/02/06 08:34:51;;;;;;;7.40;6.60;;;2.60;99.90;;;;;;5094171;28;20385;-68
2023/02/06 08:37:17;;;;;;;8.18;7.10;;;2.30;99.90;;;;;;5093603;28;20853;-68
2023/02/06 08:39:42;;;;;;;8.20;7.27;;;2.10;99.90;;;;;;5093648;28;20453;-67
2023/02/06 08:42:08;;;;;;;8.07;7.27;;;2.20;99.90;;;;;;5093875;28;20385;-67
2023/02/06 08:44:34;;;;;;;8.83;7.93;;;2.20;99.90;;;;;;5094121;28;20863;-68
2023/02/06 08:46:59;;;;;;;9.80;8.00;;;2.10;99.90;;;;;;5093912;28;20457;-68
2023/02/06 08:49:25;;;;;;;11.47;9.10;;;2.00;99.90;;;;;;5093841;28;20413;-67
2023/02/06 08:51:52;;;;;;;10.63;9.52;;;2.00;99.90;;;;;;5093817;28;20378;-69
2023/02/06 08:54:20;;;;;;;9.82;8.27;;;2.20;99.90;;;;;;5093402;28;20377;-66
2023/02/06 08:56:47;;;;;;;10.25;8.93;;;2.30;99.90;;;;;;5093450;28;20393;-67
2023/02/06 08:59:14;;;;;;;9.30;8.30;;;2.60;99.90;;;;;;5093626;28;20518;-68
2023/02/06 09:01:40;;;;;;;9.37;8.17;;;2.40;99.90;;;;;;5093403;28;20764;-69
2023/02/06 09:04:08;;;;;;;8.30;7.50;;;2.30;99.90;;;;;;5093608;28;20786;-70
2023/02/06 09:06:36;;;;;;;10.00;7.57;;;2.60;99.90;;;;;;5075279;28;20401;-68
2023/02/06 09:09:03;;;;;;;7.70;6.90;;;2.60;99.90;;;;;;5102891;22;20432;-72
2023/02/06 09:11:29;;;;;;;7.82;7.03;;;2.80;99.90;;;;;;5072785;28;20517;-73
2023/02/06 09:13:56;;;;;;;7.40;6.60;;;2.70;99.90;;;;;;5073024;28;20951;-72
2023/02/06 09:16:23;;;;;;;7.90;7.07;;;2.90;99.90;;;;;;5072815;28;20513;-72
2023/02/06 09:18:52;;;;;;;8.00;7.05;;;2.80;99.90;;;;;;5064487;28;20373;-72
2023/02/06 09:21:22;;;;;;;7.10;6.40;;;2.70;99.90;;;;;;5051298;28;20437;-72
2023/02/06 09:23:51;;;;;;;7.60;6.80;;;2.60;99.90;;;;;;5052702;28;20767;-72
2023/02/06 09:26:23;;;;;;;7.50;6.80;;;2.70;99.90;;;;;;5052413;28;20394;-71
2023/02/06 09:28:57;;;;;;;7.20;6.50;;;2.50;99.90;;;;;;5052929;28;20374;-73
2023/02/06 09:31:24;;;;;;;7.15;6.28;;;2.50;99.90;;;;;;5052269;28;20393;-73
2023/02/06 09:33:50;;;;;;;6.50;5.90;;;2.60;99.90;;;;;;5054234;28;20386;-72
2023/02/06 09:36:19;;;;;;;7.25;6.30;;;2.50;99.90;;;;;;5052708;28;20386;-73
2023/02/06 09:38:47;;;;;;;7.63;6.90;;;2.40;99.90;;;;;;5052701;28;20385;-73
2023/02/06 09:41:25;;;;;;;7.50;6.70;;;2.40;99.90;;;;;;5052334;28;20479;-73
2023/02/06 09:43:56;;;;;;;7.10;6.40;;;2.50;99.90;;;;;;5052701;28;20382;-73
2023/02/06 09:46:31;;;;;;;7.90;7.10;;;2.40;99.90;;;;;;5052273;28;20456;-73
2023/02/06 09:49:00;;;;;;;6.38;5.78;;;2.40;99.90;;;;;;5052689;28;20469;-72
2023/02/06 09:51:50;;;;;;;8.00;7.20;;;2.60;99.90;;;;;;5052490;28;20392;-72
2023/02/06 09:54:16;;;;;;;7.60;6.90;;;2.70;99.90;;;;;;5052118;28;20408;-73
2023/02/06 09:56:47;;;;;;;7.90;6.63;;;2.90;99.90;;;;;;5050677;28;20390;-74
2023/02/06 09:59:39;;;;;;;8.35;7.00;;;2.70;99.90;;;;;;5052392;28;20464;-72
2023/02/06 10:02:17;;;;;;;7.30;6.50;;;2.80;99.90;;;;;;5052454;28;20397;-72
2023/02/06 10:04:55;;;;;;;6.97;6.28;;;2.80;99.90;;;;;;5052362;28;20743;-72
2023/02/06 10:07:36;;;;;;;6.95;6.25;;;3.00;99.90;;;;;;5051773;28;20377;-72
2023/02/06 10:10:08;;;;;;;7.57;6.32;;;3.10;99.90;;;;;;5052010;28;20887;-72
2023/02/06 10:12:41;;;;;;;7.65;6.50;;;3.20;99.90;;;;;;5052006;28;20467;-72
2023/02/06 10:15:15;;;;;;;4.80;4.30;;;3.40;99.90;;;;;;5052315;28;20494;-74
2023/02/06 10:18:13;;;;;;;5.03;4.30;;;3.80;99.90;;;;;;5052615;28;20416;-74
2023/02/06 10:20:50;;;;;;;5.60;3.63;;;3.90;99.90;;;;;;5052188;28;20496;-73
2023/02/06 10:23:33;;;;;;;4.65;3.22;;;4.50;99.90;;;;;;5051995;28;20393;-72
2023/02/06 10:26:02;;;;;;;5.40;3.57;;;4.80;99.90;;;;;;5051624;28;20428;-73
2023/02/06 10:28:30;;;;;;;4.45;2.80;;;5.10;99.90;;;;;;5052136;28;20476;-72
2023/02/06 10:31:24;;;;;;;4.40;3.10;;;5.10;99.90;;;;;;5052573;28;20798;-71
2023/02/06 10:34:18;;;;;;;4.40;2.90;;;5.30;99.90;;;;;;5050673;28;20398;-72
2023/02/06 10:37:08;;;;;;;4.18;2.90;;;5.50;99.90;;;;;;5051559;28;20771;-72
2023/02/06 10:40:11;;;;;;;4.40;2.90;;;5.70;99.90;;;;;;5051479;28;20381;-73
2023/02/06 10:43:15;;;;;;;3.42;2.95;;;5.90;99.90;;;;;;5051477;28;20447;-73
2023/02/06 10:45:59;;;;;;;4.00;3.33;;;6.00;99.90;;;;;;4989415;28;20414;-72
2023/02/06 10:48:41;;;;;;;4.07;3.33;;;6.10;95.20;;;;;;5044996;28;20875;-72
2023/02/06 10:51:29;;;;;;;4.00;3.00;;;6.30;99.90;;;;;;5051370;28;20746;-73
2023/02/06 10:54:01;;;;;;;3.25;2.90;;;6.60;99.00;;;;;;5051379;28;20400;-73
2023/02/06 10:56:29;;;;;;;4.70;4.30;;;6.50;99.90;;;;;;5051002;28;20515;-72
2023/02/06 10:59:03;;;;;;;5.15;3.67;;;6.70;94.60;;;;;;5051216;28;20427;-72
2023/02/06 11:01:34;;;;;;;4.57;3.72;;;6.80;99.90;;;;;;5050860;28;20408;-73
2023/02/06 11:04:11;;;;;;;4.57;3.20;;;6.70;94.10;;;;;;5050911;28;20810;-73
2023/02/06 11:06:39;;;;;;;4.72;3.70;;;6.80;99.90;;;;;;5062206;28;20817;-72
2023/02/06 11:09:04;;;;;;;4.50;3.50;;;6.90;97.60;;;;;;5070849;28;20401;-72
2023/02/06 11:11:35;;;;;;;3.80;3.10;;;6.60;94.90;;;;;;5070812;28;20383;-73
2023/02/06 11:14:14;;;;;;;3.40;2.95;;;7.00;84.90;;;;;;5071070;28;20415;-72
2023/02/06 11:16:40;;;;;;;4.05;3.45;;;7.70;88.60;;;;;;5070626;28;20384;-73
2023/02/06 11:19:24;;;;;;;4.65;3.70;;;8.00;75.00;;;;;;5052453;28;20401;-73
2023/02/06 11:22:03;;;;;;;4.38;3.30;;;8.20;69.30;;;;;;5050452;28;20409;-73
2023/02/06 11:24:29;;;;;;;3.50;3.13;;;8.40;71.70;;;;;;5050455;28;20389;-73
2023/02/06 11:27:12;;;;;;;4.10;2.70;;;8.30;57.70;;;;;;5050320;28;20392;-73
2023/02/06 11:29:44;;;;;;;3.50;3.00;;;8.40;67.20;;;;;;5050771;28;20672;-73
2023/02/06 11:32:27;;;;;;;9.20;7.78;;;7.80;53.80;;;;;;5050424;28;20376;-73
2023/02/06 11:34:58;;;;;;;3.57;3.17;;;9.20;55.90;;;;;;5049532;28;20456;-74
2023/02/06 11:37:39;;;;;;;4.63;3.10;;;10.30;43.30;;;;;;5050514;28;20848;-74
2023/02/06 11:40:16;;;;;;;4.50;3.30;;;10.30;42.50;;;;;;5050345;28;20401;-72
2023/02/06 11:43:12;;;;;;;3.60;2.80;;;11.00;43.10;;;;;;5049110;28;20381;-73
2023/02/06 11:45:39;;;;;;;3.45;3.15;;;9.80;38.70;;;;;;5049254;28;20416;-73
2023/02/06 11:48:06;;;;;;;3.50;3.20;;;11.00;35.90;;;;;;5050291;28;20377;-73
2023/02/06 11:50:35;;;;;;;3.40;3.10;;;11.30;37.90;;;;;;5050391;28;20378;-72
2023/02/06 11:53:10;;;;;;;3.60;3.10;;;11.80;35.30;;;;;;5050248;28;20782;-72
2023/02/06 11:55:38;;;;;;;3.42;3.13;;;10.20;30.70;;;;;;5050010;28;20439;-73
2023/02/06 11:58:12;;;;;;;4.00;3.60;;;9.80;35.00;;;;;;5050270;28;20378;-73
2023/02/06 12:00:39;;;;;;;3.72;3.40;;;9.90;39.80;;;;;;5049970;28;20408;-73
2023/02/06 12:03:21;;;;;;;3.90;3.50;;;9.30;41.90;;;;;;5050005;28;20401;-72
2023/02/06 12:05:47;;;;;;;3.78;3.38;;;8.70;39.50;;;;;;5051381;28;20446;-73
2023/02/06 12:08:17;;;;;;;5.03;4.20;;;9.30;45.30;;;;;;5049698;28;20381;-72
2023/02/06 12:11:30;;;;;;;4.28;3.65;;;9.30;42.70;;;;;;5045854;28;20396;-73
2023/02/06 12:14:11;;;;;;;4.28;3.45;;;8.00;50.40;;;;;;5050132;28;20381;-73
2023/02/06 12:16:41;;;;;;;4.05;3.30;;;8.70;60.90;;;;;;5038080;28;20402;-73
2023/02/06 12:19:20;;;;;;;4.70;4.20;;;9.20;47.60;;;;;;5030436;28;20523;-72
2023/02/06 12:21:56;;;;;;;4.60;3.80;;;8.90;58.30;;;;;;5030166;28;20964;-72
2023/02/06 12:24:22;;;;;;;4.25;3.85;;;8.40;62.10;;;;;;5030209;28;20415;-73
2023/02/06 12:26:49;;;;;;;4.80;4.30;;;8.10;66.60;;;;;;5029701;28;20379;-72
2023/02/06 12:29:21;;;;;;;5.00;4.50;;;7.90;74.60;;;;;;5030410;28;20390;-72
2023/02/06 12:32:07;;;;;;;5.10;3.92;;;7.60;74.80;;;;;;5030357;28;20387;-73
2023/02/06 12:34:48;;;;;;;4.90;4.30;;;8.10;70.80;;;;;;5048320;28;20447;-72
2023/02/06 12:37:38;;;;;;;5.28;4.10;;;7.10;69.00;;;;;;5048388;28;20389;-73
2023/02/06 12:40:19;;;;;;;5.43;4.05;;;8.70;76.20;;;;;;5048709;28;20401;-71
2023/02/06 12:42:57;;;;;;;5.50;4.50;;;8.80;56.60;;;;;;5049417;28;20373;-72
2023/02/06 12:45:58;;;;;;;5.45;4.30;;;9.20;56.30;;;;;;5048835;28;20727;-71
2023/02/06 12:48:34;;;;;;;4.78;4.28;;;9.30;58.60;;;;;;5046890;28;20377;-72
2023/02/06 12:51:26;;;;;;;4.87;4.10;;;8.00;68.10;;;;;;5049005;28;20397;-71
2023/02/06 12:53:59;;;;;;;6.05;5.10;;;7.30;83.20;;;;;;5048442;28;20409;-71
2023/02/06 12:56:47;;;;;;;8.02;4.80;;;6.90;90.00;;;;;;5051823;28;20396;-71
2023/02/06 12:59:38;;;;;;;6.13;4.75;;;6.70;94.60;;;;;;5053532;28;20409;-72
2023/02/06 13:02:31;;;;;;;5.85;4.80;;;6.50;97.60;;;;;;5052396;28;20401;-73
2023/02/06 13:04:56;;;;;;;7.72;5.10;;;6.20;95.30;;;;;;5053781;28;20385;-72
2023/02/06 13:07:25;;;;;;;6.18;4.70;;;6.40;94.80;;;;;;5052683;28;20459;-72
2023/02/06 13:10:04;;;;;;;6.60;4.32;;;6.10;99.90;;;;;;5053263;28;20479;-72
2023/02/06 13:12:32;;;;;;;6.25;4.40;;;6.10;99.90;;;;;;5053121;28;20389;-72
2023/02/06 13:15:01;;;;;;;7.32;4.90;;;5.90;99.90;;;;;;5053329;28;20433;-72